createdAt,value
2022-09-05T00:00:11.931Z,341.17
2022-09-05T00:05:17.357Z,341.30
2022-09-05T00:10:24.619Z,339.55
2022-09-05T00:15:31.821Z,340.95
2022-09-05T00:24:22.579Z,340.44
2022-09-05T00:25:46.382Z,338.94
2022-09-05T00:31:07.768Z,339.45
2022-09-05T00:36:01.086Z,339.53
2022-09-05T00:41:07.927Z,340.07
2022-09-05T00:46:15.200Z,340.05
2022-09-05T00:51:28.546Z,339.90
2022-09-05T00:56:29.557Z,340.09
2022-09-05T01:01:36.861Z,339.73
2022-09-05T01:06:43.943Z,339.05
2022-09-05T01:11:51.228Z,338.86
2022-09-05T01:16:58.401Z,339.07
2022-09-05T01:22:05.577Z,340.00
2022-09-05T01:27:12.766Z,340.44
2022-09-05T01:32:19.963Z,339.92
2022-09-05T01:37:33.457Z,340.21
2022-09-05T01:42:34.332Z,339.65
2022-09-05T01:47:41.511Z,339.89
2022-09-05T01:52:57.603Z,340.32
2022-09-05T01:57:55.897Z,340.04
2022-09-05T02:03:03.244Z,340.24
2022-09-05T02:08:10.250Z,340.60
2022-09-05T02:13:17.435Z,340.67
2022-09-05T02:18:24.611Z,340.58
2022-09-05T02:23:42.016Z,340.32
2022-09-05T02:28:39.080Z,340.89
2022-09-05T02:33:46.283Z,341.51
2022-09-05T02:42:43.516Z,341.32
2022-09-05T02:45:08.708Z,341.53
2022-09-05T02:49:38.166Z,342.25
2022-09-05T02:57:38.988Z,341.30
2022-09-05T02:59:30.945Z,342.39
2022-09-05T03:04:29.480Z,343.14
2022-09-05T03:09:36.678Z,343.09
2022-09-05T03:14:43.858Z,342.74
2022-09-05T03:19:51.046Z,343.20
2022-09-05T03:24:58.263Z,343.18
2022-09-05T03:30:05.438Z,343.60
2022-09-05T03:35:12.608Z,343.62
2022-09-05T03:40:19.828Z,343.65
2022-09-05T03:45:36.366Z,343.76
2022-09-05T03:53:45.282Z,343.87
2022-09-05T03:57:24.719Z,343.28
2022-09-05T04:00:48.620Z,343.19
2022-09-05T04:08:19.250Z,343.70
2022-09-05T04:11:03.087Z,343.22
2022-09-05T04:16:10.375Z,342.92
2022-09-05T04:21:17.469Z,343.26
2022-09-05T04:26:24.649Z,343.01
2022-09-05T04:31:31.866Z,342.60
2022-09-05T04:36:39.028Z,341.98
2022-09-05T04:41:46.211Z,341.87
2022-09-05T04:46:53.548Z,341.83
2022-09-05T04:52:01.085Z,341.33
2022-09-05T04:57:14.347Z,341.49
2022-09-05T05:05:59.700Z,341.45
2022-09-05T05:07:22.375Z,341.44
2022-09-05T05:17:57.398Z,341.10
2022-09-05T05:18:06.379Z,340.51
2022-09-05T05:22:43.796Z,340.36
2022-09-05T05:27:50.979Z,340.30
2022-09-05T05:32:58.155Z,339.46
2022-09-05T05:38:05.357Z,338.67
2022-09-05T05:43:12.542Z,338.49
2022-09-05T05:48:19.744Z,338.04
2022-09-05T05:53:31.985Z,337.66
2022-09-05T05:58:34.098Z,336.71
2022-09-05T06:03:41.481Z,336.46
2022-09-05T06:10:19.743Z,336.62
2022-09-05T06:15:05.773Z,335.60
2022-09-05T06:19:02.935Z,334.34
2022-09-05T06:24:10.137Z,333.50
2022-09-05T06:29:17.399Z,333.34
2022-09-05T06:34:33.556Z,332.49
2022-09-05T06:39:31.830Z,332.62
2022-09-05T06:44:38.956Z,332.48
2022-09-05T06:49:46.344Z,333.17
2022-09-05T06:55:00.021Z,332.64
2022-09-05T07:00:01.131Z,332.50
2022-09-05T07:05:37.236Z,332.45
2022-09-05T07:10:37.342Z,332.16
2022-09-05T07:15:22.678Z,332.09
2022-09-05T07:20:29.842Z,331.95
2022-09-05T07:25:37.570Z,331.78
2022-09-05T07:30:44.231Z,332.18
2022-09-05T07:35:51.434Z,332.56
2022-09-05T07:40:58.600Z,332.59
2022-09-05T07:46:05.857Z,332.16
2022-09-05T07:56:49.493Z,331.99
2022-09-05T07:57:05.031Z,332.39
2022-09-05T08:01:27.383Z,332.10
2022-09-05T08:07:24.252Z,331.66
2022-09-05T08:11:41.705Z,331.89
2022-09-05T08:16:49.093Z,332.40
2022-09-05T08:21:56.191Z,332.53
2022-09-05T08:27:03.371Z,331.98
2022-09-05T08:32:10.572Z,332.30
2022-09-05T08:37:21.296Z,332.13
2022-09-05T08:42:25.031Z,331.84
2022-09-05T08:47:43.350Z,332.64
2022-09-05T08:52:39.498Z,331.98
2022-09-05T08:57:46.691Z,332.46
2022-09-05T09:02:53.944Z,332.04
2022-09-05T09:08:01.028Z,332.62
2022-09-05T09:13:08.233Z,332.45
2022-09-05T09:18:15.439Z,333.21
2022-09-05T09:23:31.807Z,333.49
2022-09-05T09:28:47.351Z,332.91
2022-09-05T09:33:37.066Z,333.37
2022-09-05T09:38:44.255Z,333.33
2022-09-05T09:43:53.003Z,333.20
2022-09-05T09:48:58.633Z,333.22
2022-09-05T09:54:05.803Z,333.55
2022-09-05T09:59:12.959Z,333.43
2022-09-05T10:07:46.146Z,333.59
2022-09-05T10:10:53.746Z,333.97
2022-09-05T10:14:49.035Z,334.28
2022-09-05T10:20:12.066Z,334.56
2022-09-05T10:24:49.237Z,334.74
2022-09-05T10:29:56.457Z,334.87
2022-09-05T10:35:21.350Z,334.68
2022-09-05T10:40:11.074Z,334.94
2022-09-05T10:45:18.152Z,336.23
2022-09-05T10:50:25.394Z,337.37
2022-09-05T10:55:32.597Z,337.03
2022-09-05T11:02:21.359Z,337.71
2022-09-05T11:05:47.137Z,337.52
2022-09-05T11:10:54.357Z,337.71
2022-09-05T11:16:04.837Z,338.79
2022-09-05T11:21:09.057Z,338.90
2022-09-05T11:26:16.256Z,338.70
2022-09-05T11:31:23.543Z,338.86
2022-09-05T11:40:06.079Z,339.20
2022-09-05T11:41:37.873Z,339.99
2022-09-05T11:46:45.051Z,340.25
2022-09-05T11:51:52.282Z,339.89
2022-09-05T11:57:07.796Z,340.15
2022-09-05T12:02:17.039Z,340.41
2022-09-05T12:07:27.065Z,340.76
2022-09-05T12:12:39.018Z,340.87
2022-09-05T12:17:34.850Z,341.45
2022-09-05T12:22:35.702Z,341.96
2022-09-05T12:27:46.364Z,342.02
2022-09-05T12:35:50.057Z,342.16
2022-09-05T12:40:59.299Z,342.29
2022-09-05T12:43:46.293Z,343.17
2022-09-05T12:48:11.737Z,343.60
2022-09-05T12:53:18.914Z,344.73
2022-09-05T13:02:57.875Z,345.36
2022-09-05T13:03:33.695Z,345.49
2022-09-05T13:08:40.456Z,345.80
2022-09-05T13:14:53.082Z,346.27
2022-09-05T13:18:54.803Z,346.96
2022-09-05T13:24:02.021Z,347.37
2022-09-05T13:29:10.700Z,348.07
2022-09-05T13:38:06.613Z,348.44
2022-09-05T13:39:23.715Z,349.04
2022-09-05T13:44:30.840Z,348.70
2022-09-05T13:49:38.022Z,349.63
2022-09-05T13:54:50.246Z,350.30
2022-09-05T13:59:52.617Z,350.55
2022-09-05T14:05:11.083Z,351.20
2022-09-05T14:10:07.124Z,351.77
2022-09-05T14:15:14.673Z,352.05
2022-09-05T14:20:21.636Z,352.36
2022-09-05T14:25:28.843Z,352.67
2022-09-05T14:32:16.861Z,353.35
2022-09-05T14:37:39.200Z,353.96
2022-09-05T14:40:50.957Z,354.45
2022-09-05T14:46:02.363Z,354.89
2022-09-05T14:51:05.245Z,354.76
2022-09-05T14:57:34.299Z,355.19
2022-09-05T15:02:52.382Z,355.80
2022-09-05T15:06:30.127Z,355.70
2022-09-05T15:12:28.047Z,356.34
2022-09-05T15:16:41.517Z,355.91
2022-09-05T15:21:48.708Z,356.37
2022-09-05T15:26:55.955Z,356.77
2022-09-05T15:32:09.562Z,356.15
2022-09-05T15:37:22.163Z,356.59
2022-09-05T15:42:17.489Z,357.21
2022-09-05T15:47:24.741Z,357.57
2022-09-05T15:52:31.985Z,358.33
2022-09-05T15:57:39.137Z,357.70
2022-09-05T16:02:46.595Z,357.68
2022-09-05T16:10:42.218Z,357.95
2022-09-05T16:13:00.816Z,357.89
2022-09-05T16:23:17.262Z,358.36
2022-09-05T16:23:39.311Z,358.14
2022-09-05T16:28:23.023Z,358.47
2022-09-05T16:33:30.322Z,358.47
2022-09-05T16:38:50.047Z,358.67
2022-09-05T16:43:44.782Z,359.50
2022-09-05T16:48:54.960Z,359.86
2022-09-05T16:53:59.617Z,360.74
2022-09-05T16:59:06.394Z,360.47
2022-09-05T17:04:15.917Z,360.79
2022-09-05T17:09:20.771Z,360.93
2022-09-05T17:14:27.912Z,360.97
2022-09-05T17:19:41.957Z,360.85
2022-09-05T17:29:19.845Z,360.54
2022-09-05T17:31:26.593Z,360.62
2022-09-05T17:35:17.469Z,360.20
2022-09-05T17:40:07.158Z,359.87
2022-09-05T17:45:14.378Z,359.57
2022-09-05T17:50:21.547Z,360.00
2022-09-05T17:55:28.836Z,359.61
2022-09-05T18:00:36.065Z,359.27
2022-09-05T18:05:43.211Z,359.56
2022-09-05T18:10:50.635Z,359.13
2022-09-05T18:15:58.028Z,358.72
2022-09-05T18:21:21.555Z,358.23
2022-09-05T18:26:12.593Z,357.37
2022-09-05T18:31:20.255Z,357.05
2022-09-05T18:36:27.795Z,356.84
2022-09-05T18:41:38.787Z,356.49
2022-09-05T18:46:43.109Z,355.96
2022-09-05T18:51:50.622Z,355.92
2022-09-05T18:57:19.918Z,356.03
2022-09-05T19:02:06.201Z,355.87
2022-09-05T19:07:13.566Z,356.02
2022-09-05T19:12:32.165Z,355.86
2022-09-05T19:17:28.757Z,355.83
2022-09-05T19:23:08.302Z,356.01
2022-09-05T19:33:14.303Z,356.11
2022-09-05T19:36:57.052Z,356.85
2022-09-05T19:37:59.595Z,356.50
2022-09-05T19:47:35.188Z,357.29
2022-09-05T19:48:14.164Z,357.61
2022-09-05T19:53:21.139Z,357.04
2022-09-05T19:58:28.615Z,357.47
2022-09-05T20:03:39.512Z,357.45
2022-09-05T20:08:43.183Z,357.64
2022-09-05T20:13:50.378Z,357.73
2022-09-05T20:18:57.525Z,356.85
2022-09-05T20:24:04.928Z,356.02
2022-09-05T20:29:12.120Z,356.76
2022-09-05T20:35:06.334Z,357.30
2022-09-05T20:43:26.645Z,357.27
2022-09-05T20:44:33.785Z,357.22
2022-09-05T20:54:16.806Z,356.63
2022-09-05T20:54:48.485Z,355.87
2022-09-05T20:59:55.307Z,355.71
2022-09-05T21:05:19.818Z,355.85
2022-09-05T21:10:09.778Z,356.72
2022-09-05T21:15:52.055Z,356.69
2022-09-05T21:20:24.376Z,355.89
2022-09-05T21:25:44.202Z,356.30
2022-09-05T21:30:38.837Z,356.75
2022-09-05T21:35:46.036Z,356.06
2022-09-05T21:40:53.215Z,355.98
2022-09-05T21:47:38.388Z,355.95
2022-09-05T21:51:07.679Z,356.55
2022-09-05T21:59:33.301Z,357.61
2022-09-05T22:01:44.872Z,357.44
2022-09-05T22:06:29.292Z,357.20
2022-09-05T22:11:36.538Z,357.13
2022-09-05T22:16:44.879Z,357.67
2022-09-05T22:21:50.995Z,357.85
2022-09-05T22:27:12.646Z,358.24
2022-09-05T22:32:05.564Z,359.32
2022-09-05T22:37:12.748Z,358.13
2022-09-05T22:42:19.933Z,357.64
2022-09-05T22:47:27.120Z,357.50
2022-09-05T22:52:34.298Z,357.65
2022-09-05T22:57:41.496Z,357.60
2022-09-05T23:02:52.468Z,357.47
2022-09-05T23:07:55.956Z,359.91
2022-09-05T23:13:03.133Z,359.31
2022-09-05T23:18:10.327Z,357.64
2022-09-05T23:23:17.542Z,359.19
2022-09-05T23:28:24.901Z,359.61
2022-09-05T23:33:32.086Z,359.50
2022-09-05T23:38:39.245Z,358.75
2022-09-05T23:43:46.445Z,359.56
2022-09-05T23:48:53.589Z,359.22
2022-09-05T23:54:00.826Z,359.40
2022-09-05T23:59:08.017Z,359.43
